Tuesday, January 22, 2019, 9:51 PM GMT
Back to Local

CYOY, Valcartier Airport

Location: , , Canada Lat: 46.9
Local Time: 9:51 PM GMT (21:51 GMT) Lon: -71.5
Time Zone: GMT Elev: 551 ft

Show me the last for .
Show Decoded

2019-01-22 21:00 METAR CYOY 222100Z 22007KT 15SM FEW180 BKN220 M17/M23 A3044 RMK AC1CI7 DA-3960FT
                 SLP330 =
2019-01-22 20:00 METAR CYOY 222000Z 25006KT 220V300 15SM BKN220 M13/M23 A3043 RMK CI6 DA-3473FT
                 SLP323 =
2019-01-22 19:00 METAR CYOY 221900Z 23011KT 200V260 15SM FEW220 M14/M23 A3041 RMK CI1 DA-3490FT
                 SLP317 =
2019-01-22 18:00 METAR CYOY 221800Z 22011G17KT 15SM FEW220 M14/M23 A3041 RMK CI1 DA-3598FT SLP315
                 =
2019-01-22 17:00 METAR CYOY 221700Z 25009KT 15SM FEW080 FEW220 M14/M24 A3039 RMK AC1CI1 DA-3577FT
                 SLP311 =
2019-01-22 16:00 METAR CYOY 221600Z 25011KT 15SM FEW080 M17/M25 A3042 RMK AC1 DA-3966FT SLP320 =
2019-01-22 15:00 METAR CYOY 221500Z 24009KT 15SM FEW080 M18/M26 A3041 RMK AC1 DA-4106FT AC TR
                 SLP317 =
2019-01-22 14:00 METAR CYOY 221400Z 25011G18KT 15SM FEW080 M21/M27 A3040 RMK AC1 DA-4456FT AC TR
                 SLP315 =
2019-01-22 13:00 METAR CYOY 221300Z 25013KT 15SM FEW080 M24/M29 A3039 RMK AC1 DA-4840FT AC TR
                 SLP312 =
2019-01-22 12:00 METAR CYOY 221200Z CCA 24011KT 15SM FEW100 M24/M29 A3035 RMK AC1 DA-4850FT FST
                 STFD OBS AC TR SLP300 =
2019-01-22 11:00 METAR CYOY 221100Z AUTO 24010KT 9SM M24/M29 A3033 RMK SLP291 =
2019-01-22 10:00 METAR CYOY 221000Z AUTO 25008KT 9SM M22/M29 A3029 RMK SLP277 =
2019-01-22 09:00 METAR CYOY 220900Z AUTO 25008KT 9SM M23/M29 A3026 RMK SLP265 =
2019-01-22 08:00 METAR CYOY 220800Z AUTO 27008KT 9SM M23/M29 A3021 RMK SLP248 =
2019-01-22 07:00 METAR CYOY 220700Z AUTO 29010KT 260V340 9SM M21/M29 A3017 RMK SLP234 =
2019-01-22 06:00 METAR CYOY 220600Z AUTO 32011G16KT 9SM M21/M29 A3014 RMK SLP224 =
2019-01-22 05:00 METAR CYOY 220500Z AUTO 31012KT 9SM M19/M28 A3009 RMK SLP210 =
2019-01-22 04:00 METAR CYOY 220400Z AUTO 32009G20KT 9SM M20/M28 A3007 RMK SLP201 =
2019-01-22 03:00 METAR CYOY 220300Z AUTO 32014KT 9SM M19/M27 A3003 RMK SLP187 =
2019-01-22 02:00 METAR CYOY 220200Z AUTO 32013G22KT 8SM M18/M26 A2999 RMK SLP173 =
2019-01-22 01:00 METAR CYOY 220100Z AUTO 32017G25KT 6SM M17/M25 A2995 RMK SLP161 =
2019-01-22 00:00 METAR CYOY 220000Z 33012G17KT 15SM BKN095 M17/M24 A2992 RMK AC7 DA-3342FT LAST
                 STFD OBS/NEXT 221200 UTC SLP150 =
2019-01-21 23:00 METAR CYOY 212300Z 34016G24KT 15SM FEW040 BKN075 M17/M24 A2989 RMK SC1AC7
                 DA-3279FT SLP141 =
2019-01-21 22:00 METAR CYOY 212200Z 32009G16KT 15SM FEW040 BKN070 M17/M24 A2985 RMK CU1AC7
                 DA-3232FT SLP127 =

Support USWX by starting your Amazon purchase here.